Impacts METAR Board INFO
IDs:

KMIA - Miami Intl, FL, US

Updated at: 0358 UTC 20 Nov 2017
Potential Impact None Slight Moderate High
Time19/15Z 19/16Z 19/17Z 19/18Z 19/19Z 19/20Z 19/21Z 19/22Z 19/23Z 20/00Z 20/01Z 20/02Z 20/03Z
VIS10 10 10 10 10 10 10 10 10 10 10 10 10
CIG-- -- -- -- -- -- -- -- -- -- -- -- --
CoverCLRCLRFEWFEWFEWFEWFEWFEWFEWFEWFEWCLRCLR
FltCatVFRVFRVFRVFRVFRVFRVFRVFRVFRVFRVFRVFRVFR
WX--------------------------
WDir280280260280270270280270270250250270280
WSpd4 5 6 6 5 6 6 6 3 5 4 3 4
WGst-- -- -- -- -- -- -- -- -- -- -- -- --
Raw hourly METARs
KMIA 191453Z 28004KT 10SM CLR 25/17 A2999 RMK AO2 SLP155 T02500167 50008
KMIA 191553Z 28005KT 10SM CLR 27/17 A2998 RMK AO2 SLP151 T02670172
KMIA 191653Z 26006KT 10SM FEW030 27/17 A2996 RMK AO2 SLP144 T02720172
KMIA 191753Z 28006KT 10SM FEW030 28/16 A2993 RMK AO2 SLP133 T02780161 10278 20183 58022
KMIA 191853Z 27005KT 10SM FEW030 28/16 A2990 RMK AO2 SLP125 T02830156
KMIA 191953Z 27006KT 10SM FEW045 28/15 A2989 RMK AO2 SLP121 T02780150
KMIA 192053Z 28006KT 10SM FEW045 28/14 A2989 RMK AO2 SLP122 T02780139 55012
KMIA 192153Z 27006KT 10SM FEW048 27/16 A2990 RMK AO2 SLP125 T02720156
KMIA 192253Z 27003KT 10SM FEW045 26/16 A2991 RMK AO2 SLP129 T02610161
KMIA 192353Z 25005KT 10SM FEW036 25/17 A2993 RMK AO2 SLP135 T02500167 10283 20250 53013
KMIA 200053Z 25004KT 10SM FEW032 24/18 A2994 RMK AO2 SLP140 T02440178
KMIA 200153Z 27003KT 10SM CLR 23/19 A2996 RMK AO2 SLP146 T02330194
KMIA 200253Z 28004KT 10SM CLR 23/20 A2997 RMK AO2 SLP149 T02330200 51014